Time;durP1;ratioP1;P1;durP2;ratioP2;P2;SDS_P1;SDS_P2;PMS_P1;PMS_P2;Temp;Humidity;BMP_temperature;BMP_pressure;BME280_temperature;BME280_humidity;BME280_pressure;Samples;Min_cycle;Max_cycle;Signal;HPM_P1;HPM_P2
2022/10/27 00:00:41;;;;;;;14.38;6.38;;;;;;;11.30;69.24;101628.94;4895546;29;20056;-65
2022/10/27 00:03:10;;;;;;;12.80;6.30;;;;;;;11.31;69.16;101626.13;4895070;29;20082;-66
2022/10/27 00:05:41;;;;;;;12.50;6.50;;;;;;;11.19;69.59;101632.63;4895442;29;20045;-67
2022/10/27 00:08:12;;;;;;;10.80;6.60;;;;;;;11.23;69.57;101631.34;4894763;29;20052;-67
2022/10/27 00:10:41;;;;;;;17.80;7.10;;;;;;;11.28;69.34;101641.69;4895975;29;20052;-67
2022/10/27 00:13:07;;;;;;;17.23;6.80;;;;;;;11.26;69.36;101640.97;4901520;29;20044;-67
2022/10/27 00:15:34;;;;;;;8.45;5.97;;;;;;;11.21;69.32;101646.78;4900643;29;20056;-67
2022/10/27 00:18:00;;;;;;;12.98;6.22;;;;;;;11.10;69.84;101654.94;4901463;29;20053;-67
2022/10/27 00:20:27;;;;;;;15.10;6.20;;;;;;;11.17;69.65;101654.28;4900972;29;20055;-67
2022/10/27 00:22:53;;;;;;;10.40;6.70;;;;;;;11.06;69.82;101661.59;4901526;29;20044;-67
2022/10/27 00:25:20;;;;;;;16.23;7.47;;;;;;;11.14;69.52;101661.75;4902132;29;20056;-67
2022/10/27 00:27:46;;;;;;;12.50;6.35;;;;;;;11.11;69.61;101667.41;4901327;29;20049;-67
2022/10/27 00:30:13;;;;;;;12.15;6.68;;;;;;;10.97;70.03;101668.66;4901244;29;20045;-67
2022/10/27 00:32:39;;;;;;;11.75;6.72;;;;;;;10.99;70.09;101675.56;4901056;29;20048;-66
2022/10/27 00:35:06;;;;;;;11.75;7.57;;;;;;;11.13;69.35;101668.09;4901649;29;20052;-67
2022/10/27 00:37:32;;;;;;;10.98;7.07;;;;;;;11.02;69.59;101674.44;4901335;29;20045;-67
2022/10/27 00:39:59;;;;;;;15.73;6.85;;;;;;;10.93;70.04;101669.94;4900874;29;20052;-67
2022/10/27 00:42:25;;;;;;;12.25;6.70;;;;;;;10.97;69.87;101672.19;4883916;29;20421;-67
2022/10/27 00:44:52;;;;;;;14.52;6.32;;;;;;;10.95;69.77;101676.84;4901275;29;20044;-65
2022/10/27 00:47:23;;;;;;;18.63;6.70;;;;;;;10.99;69.56;101678.25;4901718;29;20524;-66
2022/10/27 00:49:59;;;;;;;14.23;7.10;;;;;;;11.02;69.42;101692.41;4901183;29;20052;-66
2022/10/27 00:52:35;;;;;;;18.73;6.90;;;;;;;11.05;69.21;101692.97;4900052;29;20049;-67
2022/10/27 00:55:07;;;;;;;13.43;7.10;;;;;;;11.03;69.23;101692.25;4900937;29;20420;-67
2022/10/27 00:57:36;;;;;;;13.32;6.90;;;;;;;11.02;69.24;101695.09;4901467;29;20041;-67
2022/10/27 01:00:04;;;;;;;11.68;6.57;;;;;;;10.96;69.37;101692.00;4901040;29;20056;-67
2022/10/27 01:02:32;;;;;;;11.13;5.90;;;;;;;10.98;69.32;101700.72;4900829;29;20497;-67
2022/10/27 01:08:41;;;;;;;16.65;6.70;;;;;;;10.90;69.46;101697.91;4861070;29;20162;-66
2022/10/27 01:11:07;;;;;;;12.65;6.63;;;;;;;10.90;69.53;101695.22;4861813;29;20061;-66
2022/10/27 01:13:36;;;;;;;11.13;6.72;;;;;;;10.83;69.86;101702.13;4862001;29;20057;-66
2022/10/27 01:16:18;;;;;;;11.63;6.38;;;;;;;10.84;69.86;101698.44;4861930;29;20158;-66
2022/10/27 01:18:53;;;;;;;13.48;6.22;;;;;;;10.87;69.90;101706.22;4861794;29;20493;-66
2022/10/27 01:21:47;;;;;;;13.82;6.60;;;;;;;10.86;69.86;101699.19;4861554;29;20054;-66
2022/10/27 01:24:35;;;;;;;13.10;6.50;;;;;;;10.92;69.40;101701.28;4858363;29;20053;-66
2022/10/27 01:27:07;;;;;;;12.43;6.03;;;;;;;10.87;69.72;101700.03;4858568;29;20053;-67
2022/10/27 01:29:50;;;;;;;13.35;6.57;;;;;;;10.85;69.92;101707.34;4857977;29;20053;-66
2022/10/27 01:32:44;;;;;;;13.00;6.20;;;;;;;10.82;70.07;101713.00;4858188;29;20041;-67
2022/10/27 01:35:30;;;;;;;13.55;6.18;;;;;;;10.85;69.91;101710.03;4858626;29;20049;-67
2022/10/27 01:38:17;;;;;;;9.93;5.93;;;;;;;10.88;69.85;101710.59;4863762;29;20501;-68
2022/10/27 01:40:55;;;;;;;14.13;6.10;;;;;;;10.85;69.78;101710.88;4897792;29;20071;-66
2022/10/27 01:43:25;;;;;;;15.80;5.90;;;;;;;10.82;69.86;101705.78;4897687;29;20047;-66
2022/10/27 01:45:54;;;;;;;17.10;5.80;;;;;;;10.82;69.88;101699.56;4880732;29;20061;-66
2022/10/27 01:48:21;;;;;;;17.35;6.15;;;;;;;10.77;70.21;101710.72;4897382;29;20061;-66
2022/10/27 01:50:47;;;;;;;24.92;6.97;;;;;;;10.78;70.23;101703.53;4896883;29;20052;-66
2022/10/27 01:53:35;;;;;;;11.55;5.88;;;;;;;10.80;69.97;101715.81;4896207;29;20424;-66
2022/10/27 01:56:04;;;;;;;12.95;6.03;;;;;;;10.77;70.21;101713.41;4890237;29;20057;-66
2022/10/27 01:58:58;;;;;;;14.57;6.43;;;;;;;10.79;70.16;101714.13;4896779;29;20139;-66
2022/10/27 02:01:42;;;;;;;10.13;5.60;;;;;;;10.79;70.27;101721.31;4879846;29;20048;-67
2022/10/27 02:04:30;;;;;;;13.95;6.07;;;;;;;10.79;70.35;101724.88;4896922;29;20501;-66
2022/10/27 02:07:09;;;;;;;12.40;6.55;;;;;;;10.73;70.53;101723.56;4897316;29;20052;-66
2022/10/27 02:09:51;;;;;;;16.63;5.97;;;;;;;10.62;71.18;101731.75;4896948;29;20417;-66
2022/10/27 02:12:25;;;;;;;;;;;;;;;10.69;70.96;101734.72;4897827;29;20056;-66
2022/10/27 02:14:53;;;;;;;11.38;6.15;;;;;;;10.66;71.10;101732.31;4896651;29;19924;-66
2022/10/27 02:17:22;;;;;;;17.75;6.43;;;;;;;10.56;71.02;101734.13;4896938;29;20052;-66
2022/10/27 02:19:51;;;;;;;14.43;6.55;;;;;;;10.59;71.40;101744.56;4896858;29;20044;-66
2022/10/27 02:22:18;;;;;;;14.10;6.88;;;;;;;10.61;71.22;101739.91;4896756;29;20044;-66
2022/10/27 02:24:45;;;;;;;16.08;6.15;;;;;;;10.62;71.01;101737.09;4896999;29;20059;-66
2022/10/27 02:27:15;;;;;;;9.85;5.78;;;;;;;10.64;70.98;101735.13;4896461;29;20049;-66
2022/10/27 02:29:53;;;;;;;12.88;6.72;;;;;;;10.66;70.86;101740.38;4896790;29;20055;-66
2022/10/27 02:32:22;;;;;;;12.93;6.57;;;;;;;10.68;70.68;101735.69;4896813;29;20045;-66
2022/10/27 02:34:50;;;;;;;14.23;6.60;;;;;;;10.65;70.92;101744.00;4896533;29;20052;-66
2022/10/27 02:37:41;;;;;;;18.85;6.53;;;;;;;10.59;70.91;101741.91;4896663;29;20052;-66
2022/10/27 02:40:08;;;;;;;20.95;6.55;;;;;;;10.61;70.88;101742.59;4891705;29;20049;-66
2022/10/27 02:42:35;;;;;;;16.65;6.97;;;;;;;10.66;70.59;101748.41;4896264;29;20055;-66
2022/10/27 02:45:02;;;;;;;12.70;6.10;;;;;;;10.59;70.88;101748.09;4896113;29;20056;-67
2022/10/27 02:47:28;;;;;;;23.35;6.85;;;;;;;10.62;70.59;101741.63;4896609;29;20055;-66
2022/10/27 02:49:55;;;;;;;19.27;6.30;;;;;;;10.53;70.91;101737.91;4896559;29;20059;-66
2022/10/27 02:52:21;;;;;;;19.83;6.82;;;;;;;10.41;71.38;101747.84;4896798;29;20046;-66
2022/10/27 02:54:48;;;;;;;16.27;6.05;;;;;;;10.44;71.31;101744.91;4896470;29;20052;-66
2022/10/27 02:57:15;;;;;;;13.45;6.55;;;;;;;10.35;71.67;101748.38;4896193;29;20056;-66
2022/10/27 02:59:42;;;;;;;18.60;7.22;;;;;;;10.40;71.47;101756.88;4895657;29;20440;-66
2022/10/27 03:02:09;;;;;;;15.65;6.85;;;;;;;10.28;71.87;101760.63;4896064;29;20060;-66
2022/10/27 03:04:35;;;;;;;10.48;6.05;;;;;;;10.40;71.29;101767.59;4895754;29;20420;-66
2022/10/27 03:07:03;;;;;;;14.82;6.50;;;;;;;10.34;71.46;101754.75;4896022;29;20057;-66
2022/10/27 03:09:29;;;;;;;13.77;6.40;;;;;;;10.32;71.61;101754.00;4896061;29;20048;-66
2022/10/27 03:11:56;;;;;;;15.95;6.63;;;;;;;10.28;71.87;101755.28;4896304;29;20060;-66
2022/10/27 03:14:22;;;;;;;16.42;7.28;;;;;;;10.22;71.97;101759.31;4896306;29;20051;-66
2022/10/27 03:16:48;;;;;;;14.85;6.78;;;;;;;10.28;71.80;101758.78;4896107;29;20052;-66
2022/10/27 03:19:15;;;;;;;15.05;7.43;;;;;;;10.28;71.67;101768.69;4895550;29;20056;-66
2022/10/27 03:21:41;;;;;;;17.10;7.22;;;;;;;10.43;71.06;101764.66;4896059;29;20402;-66
2022/10/27 03:24:08;;;;;;;17.10;7.63;;;;;;;10.43;71.01;101770.03;4895789;29;20075;-66
2022/10/27 03:26:34;;;;;;;15.80;7.47;;;;;;;10.41;70.95;101763.97;4885507;29;20078;-66
2022/10/27 03:29:01;;;;;;;19.48;8.32;;;;;;;10.42;70.88;101771.00;4896049;29;20493;-66
2022/10/27 03:31:27;;;;;;;15.05;7.68;;;;;;;10.41;70.89;101771.13;4896042;29;20520;-66
2022/10/27 03:33:54;;;;;;;21.75;7.78;;;;;;;10.41;70.89;101782.72;4895928;29;20048;-66
2022/10/27 03:36:20;;;;;;;14.88;7.70;;;;;;;10.25;71.37;101782.34;4895594;29;20071;-66
2022/10/27 03:38:48;;;;;;;18.20;7.78;;;;;;;10.28;71.51;101787.47;4895095;29;20051;-66
2022/10/27 03:41:14;;;;;;;16.27;7.28;;;;;;;10.23;71.79;101785.16;4895734;29;20052;-66
2022/10/27 03:43:40;;;;;;;19.63;7.78;;;;;;;10.13;72.12;101795.00;4895490;29;20052;-67
2022/10/27 03:46:09;;;;;;;12.88;7.40;;;;;;;10.19;71.96;101798.97;4893966;29;20048;-66
2022/10/27 03:48:35;;;;;;;15.07;8.32;;;;;;;10.00;72.38;101795.19;4895231;29;20064;-66
2022/10/27 03:51:02;;;;;;;17.27;7.93;;;;;;;10.07;72.48;101802.72;4895863;29;20059;-66
2022/10/27 03:53:28;;;;;;;16.42;8.23;;;;;;;10.06;72.31;101793.78;4895779;29;20125;-66
2022/10/27 03:55:54;;;;;;;15.65;8.02;;;;;;;9.90;72.91;101793.41;4895397;29;20553;-66
2022/10/27 03:58:21;;;;;;;18.77;9.00;;;;;;;9.98;72.90;101805.16;4894944;29;20052;-66
2022/10/27 04:00:47;;;;;;;16.42;8.48;;;;;;;9.95;72.76;101804.56;4894932;29;20052;-68
2022/10/27 04:03:15;;;;;;;15.88;8.27;;;;;;;10.00;72.11;101800.53;4895688;29;20125;-66
2022/10/27 04:05:41;;;;;;;16.55;9.18;;;;;;;9.97;72.32;101806.16;4895746;29;20048;-66
2022/10/27 04:08:07;;;;;;;19.75;10.38;;;;;;;9.85;72.83;101803.66;4894083;29;20421;-67
2022/10/27 04:10:34;;;;;;;22.42;10.55;;;;;;;9.89;73.00;101808.66;4894833;29;20045;-68
2022/10/27 04:13:00;;;;;;;24.48;10.88;;;;;;;9.85;72.97;101809.84;4895043;29;20059;-68
2022/10/27 04:15:27;;;;;;;27.20;10.75;;;;;;;9.89;72.85;101818.50;4895999;29;20478;-67
2022/10/27 04:17:57;;;;;;;23.90;10.02;;;;;;;9.90;72.79;101821.06;4889112;29;20049;-67
2022/10/27 04:20:24;;;;;;;14.63;9.25;;;;;;;9.64;73.61;101819.69;4894908;29;20051;-68
2022/10/27 04:22:50;;;;;;;18.83;9.30;;;;;;;9.90;73.01;101830.94;4895142;29;20059;-67
2022/10/27 04:25:17;;;;;;;20.23;10.40;;;;;;;9.99;72.51;101824.78;4894478;29;20108;-67
2022/10/27 04:27:44;;;;;;;13.40;8.35;;;;;;;9.93;72.33;101831.53;4894118;29;20049;-67
2022/10/27 04:30:10;;;;;;;23.83;9.52;;;;;;;9.83;72.99;101838.63;4894256;29;20057;-67
2022/10/27 04:32:37;;;;;;;19.17;9.05;;;;;;;9.86;72.90;101841.06;4894456;29;20147;-67
2022/10/27 04:35:07;;;;;;;15.63;8.82;;;;;;;10.06;72.02;101838.53;4895209;29;20044;-67
2022/10/27 04:37:34;;;;;;;17.58;9.35;;;;;;;9.84;73.00;101842.16;4895084;29;20040;-67
2022/10/27 04:40:00;;;;;;;16.02;9.32;;;;;;;9.93;72.67;101847.63;4894467;29;20053;-67
2022/10/27 04:42:27;;;;;;;27.05;11.05;;;;;;;9.94;72.59;101846.63;4894876;29;20071;-66
2022/10/27 04:44:53;;;;;;;15.93;9.23;;;;;;;9.94;72.72;101849.31;4895185;29;20073;-66
2022/10/27 04:47:20;;;;;;;16.95;9.52;;;;;;;9.86;72.99;101842.91;4894906;29;20440;-66
2022/10/27 04:49:46;;;;;;;21.38;9.75;;;;;;;9.95;72.75;101839.44;4894533;29;20056;-67
2022/10/27 04:52:13;;;;;;;18.45;10.20;;;;;;;9.93;72.94;101844.94;4894731;29;20048;-67
2022/10/27 04:54:39;;;;;;;14.20;9.18;;;;;;;9.96;72.82;101852.72;4894435;29;20048;-66
2022/10/27 04:57:06;;;;;;;17.67;9.52;;;;;;;9.96;72.57;101852.72;4895484;29;20059;-66
2022/10/27 04:59:32;;;;;;;17.02;8.90;;;;;;;9.90;72.61;101850.53;4898379;29;20045;-66
2022/10/27 05:01:59;;;;;;;14.25;9.93;;;;;;;9.95;72.55;101859.03;4899474;29;20059;-66
2022/10/27 05:04:26;;;;;;;13.32;8.43;;;;;;;9.98;72.47;101853.44;4898017;29;20076;-66
2022/10/27 05:06:52;;;;;;;26.92;9.30;;;;;;;9.95;72.41;101855.50;4896993;29;20416;-67
2022/10/27 05:09:18;;;;;;;15.48;8.48;;;;;;;9.93;72.40;101869.06;4897198;29;20059;-66
2022/10/27 05:11:45;;;;;;;16.33;8.80;;;;;;;9.90;72.42;101874.66;4897131;29;20059;-66
2022/10/27 05:14:11;;;;;;;18.23;8.27;;;;;;;9.94;72.28;101868.06;4896585;29;20057;-65
2022/10/27 05:16:38;;;;;;;18.10;8.82;;;;;;;9.89;72.36;101872.97;4898341;29;20499;-67
2022/10/27 05:19:04;;;;;;;15.57;8.80;;;;;;;9.85;72.56;101876.03;4897555;29;20059;-67
2022/10/27 05:21:31;;;;;;;20.63;8.40;;;;;;;9.65;73.14;101873.19;4898714;29;20056;-67
2022/10/27 05:23:58;;;;;;;20.55;9.27;;;;;;;9.73;73.01;101872.53;4897641;29;20067;-66
2022/10/27 05:26:24;;;;;;;17.75;8.80;;;;;;;9.76;72.95;101883.00;4896802;29;20056;-66
2022/10/27 05:28:51;;;;;;;16.30;8.27;;;;;;;9.79;72.63;101880.06;4887953;29;20069;-66
2022/10/27 05:31:17;;;;;;;28.50;12.20;;;;;;;9.75;72.75;101892.88;4848388;29;1105938;-66
2022/10/27 05:33:44;;;;;;;18.33;9.55;;;;;;;9.76;72.87;101893.72;4896420;29;20067;-66
2022/10/27 05:36:10;;;;;;;22.38;10.93;;;;;;;9.79;72.75;101893.47;4897239;29;20056;-67
2022/10/27 05:38:38;;;;;;;15.85;8.65;;;;;;;9.68;72.88;101893.47;4897154;29;20056;-67
2022/10/27 05:41:04;;;;;;;18.50;8.85;;;;;;;9.76;72.78;101899.09;4897769;29;20056;-66
2022/10/27 05:43:31;;;;;;;18.05;9.20;;;;;;;9.80;72.65;101896.00;4896924;29;20049;-68
2022/10/27 05:46:04;;;;;;;34.25;10.15;;;;;;;9.85;72.24;101897.47;4896724;29;20052;-66
2022/10/27 05:48:30;;;;;;;17.17;8.90;;;;;;;9.79;72.67;101901.53;4896352;29;20482;-67
2022/10/27 05:50:57;;;;;;;21.30;9.15;;;;;;;9.59;73.54;101902.28;4897016;29;20056;-67
2022/10/27 05:53:23;;;;;;;18.17;8.43;;;;;;;9.65;73.56;101901.81;4895534;29;20420;-67
2022/10/27 05:55:53;;;;;;;19.52;10.05;;;;;;;9.64;73.43;101903.59;4897892;29;20512;-67
2022/10/27 05:58:20;;;;;;;20.27;10.15;;;;;;;9.61;73.41;101900.31;4895993;29;20040;-67
2022/10/27 06:00:47;;;;;;;19.88;10.13;;;;;;;9.60;73.80;101898.63;4896483;29;20052;-67
2022/10/27 06:03:23;;;;;;;16.42;9.48;;;;;;;9.56;73.61;101904.25;4895832;29;20052;-67
2022/10/27 06:05:51;;;;;;;18.92;9.15;;;;;;;9.43;74.45;101892.81;4896065;29;20060;-67
2022/10/27 06:08:18;;;;;;;19.52;10.52;;;;;;;9.50;74.77;101893.16;4894714;29;20503;-67
2022/10/27 06:10:45;;;;;;;28.40;11.57;;;;;;;9.51;74.69;101901.09;4895752;29;20049;-67
2022/10/27 06:13:13;;;;;;;18.58;11.02;;;;;;;9.48;75.35;101900.50;4894426;29;20057;-67
2022/10/27 06:15:40;;;;;;;19.90;11.40;;;;;;;9.66;74.63;101898.97;4895402;29;20044;-67
2022/10/27 06:18:07;;;;;;;20.67;11.80;;;;;;;9.64;74.73;101895.56;4896427;29;20048;-67
2022/10/27 06:20:33;;;;;;;24.33;12.75;;;;;;;9.59;74.79;101896.94;4896541;29;20397;-67
2022/10/27 06:23:00;;;;;;;25.25;12.00;;;;;;;9.49;75.24;101895.00;4895682;29;20059;-67
2022/10/27 06:25:26;;;;;;;21.05;12.77;;;;;;;9.64;74.74;101900.06;4897160;29;20059;-66
2022/10/27 06:27:53;;;;;;;27.33;12.77;;;;;;;9.87;73.98;101906.25;4896761;29;20055;-68
2022/10/27 06:30:20;;;;;;;20.50;10.60;;;;;;;9.66;74.44;101906.19;4896113;29;20120;-69
2022/10/27 06:32:47;;;;;;;24.23;11.60;;;;;;;9.68;74.81;101902.41;4896348;29;20067;-68
2022/10/27 06:35:14;;;;;;;17.25;11.00;;;;;;;9.71;74.63;101904.81;4897172;29;20051;-68
2022/10/27 06:37:43;;;;;;;18.60;11.52;;;;;;;9.84;74.37;101923.41;4896762;29;20048;-69
2022/10/27 06:40:15;;;;;;;19.27;10.75;;;;;;;9.85;74.12;101921.59;4897012;29;20059;-68
2022/10/27 06:42:42;;;;;;;21.23;11.40;;;;;;;9.97;73.71;101921.44;4896548;29;20048;-68
2022/10/27 06:45:21;;;;;;;19.75;10.52;;;;;;;9.81;74.04;101920.97;4892545;29;20044;-69
2022/10/27 06:47:58;;;;;;;25.10;10.93;;;;;;;9.70;74.93;101921.88;4896318;29;20052;-70
2022/10/27 06:50:24;;;;;;;18.77;11.40;;;;;;;9.79;74.66;101918.44;4896650;29;20060;-69
2022/10/27 06:52:51;;;;;;;30.63;10.55;;;;;;;9.92;74.31;101920.09;4895242;29;20048;-69
2022/10/27 06:55:18;;;;;;;23.08;11.88;;;;;;;9.80;75.00;101924.66;4895843;29;20417;-69
2022/10/27 06:57:45;;;;;;;19.85;11.15;;;;;;;9.91;74.71;101921.94;4896140;29;20060;-69
2022/10/27 07:00:12;;;;;;;21.35;9.82;;;;;;;9.94;74.71;101928.88;4896449;29;20048;-69
2022/10/27 07:02:39;;;;;;;16.92;10.15;;;;;;;10.14;74.37;101935.28;4896839;29;20048;-69
2022/10/27 07:05:06;;;;;;;18.00;9.65;;;;;;;10.05;74.47;101936.88;4896424;29;20044;-69
2022/10/27 07:07:33;;;;;;;22.73;9.98;;;;;;;10.01;74.63;101947.00;4891153;29;20080;-69
2022/10/27 07:09:59;;;;;;;16.25;9.20;;;;;;;10.10;74.22;101942.72;4896163;29;20068;-69
2022/10/27 07:12:26;;;;;;;29.65;10.50;;;;;;;10.16;74.49;101935.97;4895868;29;20040;-69
2022/10/27 07:14:52;;;;;;;16.42;9.65;;;;;;;10.06;74.88;101940.41;4893543;29;20068;-69
2022/10/27 07:17:19;;;;;;;18.95;11.00;;;;;;;10.21;74.24;101939.16;4895654;29;20048;-69
2022/10/27 07:19:46;;;;;;;22.00;9.70;;;;;;;10.29;74.26;101936.66;4895653;29;20055;-68
2022/10/27 07:22:13;;;;;;;15.65;9.70;;;;;;;10.42;74.01;101945.38;4895906;29;20055;-69
2022/10/27 07:24:39;;;;;;;18.80;9.40;;;;;;;10.40;74.08;101951.84;4896144;29;20568;-69
2022/10/27 07:27:06;;;;;;;20.45;9.38;;;;;;;10.44;73.97;101954.16;4895850;29;20409;-69
2022/10/27 07:29:36;;;;;;;34.03;9.80;;;;;;;10.70;73.40;101959.19;4895690;29;20060;-68
2022/10/27 07:32:03;;;;;;;18.58;9.18;;;;;;;10.87;72.60;101955.06;4894508;29;20053;-68
2022/10/27 07:34:32;;;;;;;28.60;10.07;;;;;;;11.11;72.07;101957.44;4884536;29;20052;-69
2022/10/27 07:37:00;;;;;;;22.25;9.88;;;;;;;11.23;71.45;101956.38;4886485;29;20100;-69
2022/10/27 07:39:33;;;;;;;21.80;10.43;;;;;;;11.28;71.81;101954.16;4883601;29;20332;-68
2022/10/27 07:42:01;;;;;;;16.90;9.20;;;;;;;11.49;71.00;101962.16;4891043;29;20048;-69
2022/10/27 07:44:28;;;;;;;14.77;8.75;;;;;;;11.53;70.20;101963.56;4889893;29;20529;-68
2022/10/27 07:46:54;;;;;;;17.27;9.07;;;;;;;11.70;70.33;101959.41;4894339;29;20048;-68
2022/10/27 07:49:21;;;;;;;19.42;8.48;;;;;;;11.45;70.80;101960.72;4895605;29;20045;-68
2022/10/27 07:51:47;;;;;;;16.75;8.82;;;;;;;11.40;71.02;101971.84;4895541;29;20412;-70
2022/10/27 07:54:14;;;;;;;18.30;8.70;;;;;;;11.33;70.84;101968.00;4894281;29;20049;-69
2022/10/27 07:56:40;;;;;;;23.45;9.27;;;;;;;11.46;70.81;101965.94;4896160;29;20049;-67
2022/10/27 07:59:07;;;;;;;20.95;8.88;;;;;;;11.55;70.77;101966.09;4895070;29;20051;-69
2022/10/27 08:01:33;;;;;;;16.92;7.65;;;;;;;11.64;70.13;101974.22;4895519;29;20044;-68
2022/10/27 08:04:00;;;;;;;17.00;8.82;;;;;;;11.72;70.40;101970.00;4895054;29;20080;-68
2022/10/27 08:06:26;;;;;;;20.33;8.80;;;;;;;11.89;69.73;101972.88;4894694;29;20055;-68
2022/10/27 08:08:53;;;;;;;23.88;8.40;;;;;;;12.13;68.99;101974.34;4894325;29;20044;-69
2022/10/27 08:11:21;;;;;;;40.28;8.55;;;;;;;12.04;69.00;101977.88;4895081;29;20048;-69
2022/10/27 08:13:48;;;;;;;17.23;8.30;;;;;;;12.57;67.99;101972.94;4895398;29;20063;-68
2022/10/27 08:16:15;;;;;;;19.85;7.40;;;;;;;12.69;67.40;101979.00;4895056;29;20059;-68
2022/10/27 08:18:41;;;;;;;17.83;7.47;;;;;;;12.58;67.89;101980.00;4895868;29;20497;-68
2022/10/27 08:21:08;;;;;;;23.65;7.82;;;;;;;12.72;67.21;101975.19;4894956;29;20045;-67
2022/10/27 08:23:34;;;;;;;20.27;7.13;;;;;;;13.22;65.42;101973.13;4895098;29;20045;-69
2022/10/27 08:26:01;;;;;;;18.20;7.20;;;;;;;13.55;64.66;101984.34;4895132;29;20052;-68
2022/10/27 08:28:27;;;;;;;22.98;7.40;;;;;;;13.48;64.38;101988.63;4894929;29;20055;-68
2022/10/27 08:30:53;;;;;;;17.05;6.57;;;;;;;13.55;64.29;101987.03;4894783;29;20442;-68
2022/10/27 08:33:21;;;;;;;17.48;7.15;;;;;;;13.73;63.88;101985.22;4897707;29;20048;-68
2022/10/27 08:35:49;;;;;;;16.65;7.05;;;;;;;14.04;62.87;101988.47;4898441;29;20052;-68
2022/10/27 08:38:17;;;;;;;23.70;7.65;;;;;;;13.93;63.16;101986.00;4898487;29;20049;-67
2022/10/27 08:41:01;;;;;;;14.93;7.65;;;;;;;14.04;62.53;101993.03;4898527;29;20048;-69
2022/10/27 08:43:55;;;;;;;21.02;6.65;;;;;;;14.68;60.99;101991.97;4898060;29;20052;-68
2022/10/27 08:46:40;;;;;;;11.63;6.18;;;;;;;15.22;59.51;101983.75;4898382;29;20041;-67
2022/10/27 08:49:27;;;;;;;22.23;6.85;;;;;;;14.84;59.80;101985.00;4898270;29;20492;-67
2022/10/27 08:51:58;;;;;;;15.27;5.63;;;;;;;15.50;58.37;101989.84;4898036;29;20075;-68
2022/10/27 08:54:26;;;;;;;18.45;6.38;;;;;;;15.36;58.72;101993.13;4898555;29;20057;-68
2022/10/27 08:56:56;;;;;;;22.38;7.47;;;;;;;15.51;58.09;102005.03;4898410;29;20484;-67
2022/10/27 08:59:24;;;;;;;19.75;6.32;;;;;;;15.97;57.47;101997.47;4881817;29;20049;-68
2022/10/27 09:02:29;;;;;;;14.60;6.55;;;;;;;15.75;57.46;102004.34;4897768;29;20067;-69
2022/10/27 09:05:39;;;;;;;16.70;8.48;;;;;;;16.13;56.82;102007.50;4898305;29;20049;-68
2022/10/27 09:08:34;;;;;;;18.00;5.85;;;;;;;15.74;57.82;101993.66;4854451;29;20048;-68
2022/10/27 09:11:12;;;;;;;15.13;6.10;;;;;;;15.92;57.51;101991.72;4897764;29;20052;-68
2022/10/27 09:14:01;;;;;;;16.20;5.65;;;;;;;16.52;56.21;101998.78;4896771;29;20040;-68
2022/10/27 09:16:32;;;;;;;14.27;5.57;;;;;;;17.06;54.58;101990.94;4897238;29;20067;-69
2022/10/27 09:19:02;;;;;;;14.85;5.47;;;;;;;16.85;54.97;101991.47;4897711;29;20056;-68
2022/10/27 09:21:32;;;;;;;18.73;5.05;;;;;;;17.77;52.86;101986.50;4897825;29;20052;-68
2022/10/27 09:24:09;;;;;;;14.65;5.30;;;;;;;18.12;51.95;101987.00;4896317;29;20424;-69
2022/10/27 09:26:35;;;;;;;13.90;4.60;;;;;;;18.69;50.86;101983.88;4897505;29;20044;-67
2022/10/27 09:29:12;;;;;;;16.17;5.00;;;;;;;18.57;50.22;101982.63;4897811;29;20477;-69
2022/10/27 09:31:45;;;;;;;13.07;4.80;;;;;;;19.17;48.93;101981.72;4880069;29;20493;-69
2022/10/27 09:34:42;;;;;;;12.13;4.80;;;;;;;19.36;48.61;101985.78;4897551;29;20048;-67
2022/10/27 09:37:14;;;;;;;16.30;4.65;;;;;;;20.23;46.52;101985.81;4895933;29;20485;-67
2022/10/27 09:39:46;;;;;;;14.35;4.85;;;;;;;20.18;46.26;101986.41;4897877;29;20057;-68
2022/10/27 09:42:12;;;;;;;13.98;4.50;;;;;;;20.81;45.49;101994.78;4897557;29;20044;-67
2022/10/27 09:44:43;;;;;;;8.57;4.55;;;;;;;20.76;44.88;101989.06;4895658;29;20049;-67
2022/10/27 09:47:09;;;;;;;8.98;4.18;;;;;;;21.35;44.15;101988.66;4896916;29;20358;-67
2022/10/27 09:49:38;;;;;;;11.75;4.03;;;;;;;21.57;43.28;101991.31;4896420;29;20056;-67
2022/10/27 09:52:16;;;;;;;11.38;4.50;;;;;;;20.99;44.07;101988.00;4896951;29;20052;-69
2022/10/27 09:54:51;;;;;;;14.85;4.43;;;;;;;20.64;44.68;101991.50;4896855;29;20068;-67
2022/10/27 09:57:26;;;;;;;12.30;3.92;;;;;;;20.50;45.45;101981.50;4897386;29;20113;-69
2022/10/27 10:00:25;;;;;;;12.18;3.78;;;;;;;20.31;46.47;101991.13;4897137;29;20092;-69
2022/10/27 10:02:58;;;;;;;12.43;4.30;;;;;;;20.41;45.72;101994.41;4894027;29;20067;-68
2022/10/27 10:05:27;;;;;;;11.25;3.90;;;;;;;20.10;46.86;101988.41;4897002;29;20520;-68
2022/10/27 10:08:23;;;;;;;12.48;4.57;;;;;;;20.22;46.09;101997.78;4897311;29;20052;-68
2022/10/27 10:10:57;;;;;;;12.65;4.10;;;;;;;19.88;47.16;102001.16;4896011;29;20059;-68
2022/10/27 10:13:25;;;;;;;16.58;4.25;;;;;;;20.21;46.52;101985.16;4897250;29;20060;-67
2022/10/27 10:16:32;;;;;;;12.25;3.50;;;;;;;20.61;45.68;101989.16;4896782;29;20051;-69
2022/10/27 10:19:13;;;;;;;12.90;4.07;;;;;;;20.14;46.49;101989.69;4857556;29;20053;-69
2022/10/27 10:21:56;;;;;;;12.10;3.35;;;;;;;20.09;46.84;101986.72;4857255;29;20067;-69
2022/10/27 10:24:28;;;;;;;15.23;3.47;;;;;;;19.13;48.91;101980.41;4857239;29;20050;-69
2022/10/27 10:26:57;;;;;;;11.88;2.92;;;;;;;19.15;48.98;101986.53;4857627;29;20417;-68
2022/10/27 10:29:45;;;;;;;10.27;3.75;;;;;;;19.57;47.69;101985.03;4857632;29;20463;-68
2022/10/27 10:32:15;;;;;;;14.02;3.78;;;;;;;19.42;47.94;101982.31;4850352;29;20053;-68
2022/10/27 10:34:42;;;;;;;17.02;3.35;;;;;;;19.16;49.20;101980.03;4857099;29;20049;-67
2022/10/27 10:37:31;;;;;;;14.25;3.28;;;;;;;19.60;48.25;101980.03;4856920;29;20412;-68
2022/10/27 10:40:17;;;;;;;9.63;3.05;;;;;;;19.57;48.19;101988.56;4856886;29;20072;-68
2022/10/27 10:42:45;;;;;;;13.45;3.00;;;;;;;19.82;47.98;101991.00;4857288;29;20049;-68
2022/10/27 10:45:25;;;;;;;13.95;2.60;;;;;;;20.62;45.92;101987.28;4856734;29;20052;-68
2022/10/27 10:47:58;;;;;;;18.42;2.85;;;;;;;20.57;46.10;101989.75;4856460;29;20149;-68
2022/10/27 10:50:27;;;;;;;11.73;3.08;;;;;;;20.41;45.98;101991.69;4887478;29;20048;-68
2022/10/27 10:52:56;;;;;;;9.90;3.33;;;;;;;20.54;46.13;101992.88;4896150;29;20393;-67
2022/10/27 10:55:32;;;;;;;8.45;3.03;;;;;;;20.92;45.81;101983.31;4895513;29;20048;-66
2022/10/27 10:57:58;;;;;;;10.57;2.75;;;;;;;21.81;43.31;101982.63;4896135;29;20513;-67
2022/10/27 11:00:26;;;;;;;14.10;3.05;;;;;;;21.89;43.10;101975.28;4896345;29;20058;-67
2022/10/27 11:02:58;;;;;;;13.93;3.35;;;;;;;22.34;42.36;101987.38;4895429;29;20497;-68
2022/10/27 11:05:31;;;;;;;20.70;3.65;;;;;;;21.84;42.70;101982.22;4895226;29;20394;-67
2022/10/27 11:07:58;;;;;;;11.02;3.58;;;;;;;21.72;43.70;101975.63;4896186;29;20052;-67
2022/10/27 11:10:29;;;;;;;8.65;3.22;;;;;;;22.21;42.83;101974.53;4896012;29;20096;-67
2022/10/27 11:13:03;;;;;;;11.13;2.92;;;;;;;22.54;41.29;101976.50;4895213;29;20049;-67
2022/10/27 11:15:36;;;;;;;13.55;3.35;;;;;;;20.88;44.41;101971.13;4895477;29;20055;-67
2022/10/27 11:18:18;;;;;;;14.95;3.63;;;;;;;21.14;44.05;101969.66;4895586;29;20057;-69
2022/10/27 11:20:48;;;;;;;12.35;3.05;;;;;;;21.30;44.49;101963.88;4894987;29;20075;-67
2022/10/27 11:23:19;;;;;;;15.80;3.80;;;;;;;21.40;44.17;101963.50;4895274;29;20050;-69
2022/10/27 11:25:46;;;;;;;11.68;2.78;;;;;;;21.93;42.11;101957.44;4896029;29;20297;-69
2022/10/27 11:28:36;;;;;;;8.02;2.83;;;;;;;22.36;41.71;101957.97;4895248;29;20049;-67
2022/10/27 11:31:21;;;;;;;12.60;2.55;;;;;;;22.25;41.61;101953.91;4894600;29;20059;-69
2022/10/27 11:33:57;;;;;;;11.02;3.10;;;;;;;21.12;43.91;101960.84;4895536;29;20044;-68
2022/10/27 11:36:40;;;;;;;14.68;2.67;;;;;;;21.26;43.60;101962.59;4895323;29;20421;-69
2022/10/27 11:39:11;;;;;;;13.77;2.72;;;;;;;21.58;43.47;101960.22;4878486;29;20072;-69